createdAt,value
2018-03-28T00:00:28.546Z,49.66
2018-03-28T00:01:26.890Z,49.66
2018-03-28T00:02:26.870Z,49.66
2018-03-28T00:03:26.848Z,49.66
2018-03-28T00:04:26.822Z,49.66
2018-03-28T00:05:26.808Z,49.56
2018-03-28T00:06:26.780Z,49.56
2018-03-28T00:07:26.752Z,49.75
2018-03-28T00:08:26.722Z,49.73
2018-03-28T00:09:26.702Z,49.82
2018-03-28T00:10:26.676Z,49.75
2018-03-28T00:11:26.652Z,49.82
2018-03-28T00:12:26.637Z,49.75
2018-03-28T00:13:26.612Z,49.85
2018-03-28T00:14:26.588Z,49.85
2018-03-28T00:15:26.562Z,49.95
2018-03-28T00:16:26.538Z,49.85
2018-03-28T00:17:26.513Z,49.85
2018-03-28T00:18:26.539Z,49.85
2018-03-28T00:19:26.470Z,50.41
2018-03-28T00:20:26.454Z,50.72
2018-03-28T00:21:26.465Z,50.31
2018-03-28T00:22:26.392Z,50.82
2018-03-28T00:23:26.372Z,50.53
2018-03-28T00:24:26.348Z,50.60
2018-03-28T00:25:26.335Z,50.53
2018-03-28T00:26:26.353Z,50.60
2018-03-28T00:27:26.328Z,50.70
2018-03-28T00:28:26.262Z,50.43
2018-03-28T00:29:26.226Z,50.70
2018-03-28T00:30:26.241Z,50.60
2018-03-28T00:31:26.197Z,50.82
2018-03-28T00:32:37.059Z,50.60
2018-03-28T00:33:27.072Z,50.41
2018-03-28T00:34:26.164Z,50.41
2018-03-28T00:35:26.090Z,50.79
2018-03-28T00:36:26.069Z,50.21
2018-03-28T00:37:26.056Z,50.31
2018-03-28T00:38:26.013Z,50.60
2018-03-28T00:39:26.034Z,50.50
2018-03-28T00:40:25.977Z,50.50
2018-03-28T00:41:25.944Z,50.50
2018-03-28T00:42:25.950Z,50.31
2018-03-28T00:43:25.905Z,50.41
2018-03-28T00:44:25.883Z,50.31
2018-03-28T00:45:25.862Z,50.41
2018-03-28T00:46:25.824Z,50.31
2018-03-28T00:47:25.824Z,50.12
2018-03-28T00:48:25.789Z,50.41
2018-03-28T00:49:25.763Z,50.31
2018-03-28T00:50:25.747Z,50.31
2018-03-28T00:51:25.767Z,50.31
2018-03-28T00:52:25.697Z,50.41
2018-03-28T00:53:25.673Z,50.41
2018-03-28T00:54:25.644Z,50.60
2018-03-28T00:55:25.635Z,50.50
2018-03-28T00:56:25.599Z,50.41
2018-03-28T00:57:25.611Z,50.41
2018-03-28T00:58:25.541Z,50.31
2018-03-28T00:59:25.519Z,50.31
2018-03-28T01:00:25.495Z,50.31
2018-03-28T01:01:25.461Z,50.21
2018-03-28T01:02:25.438Z,50.21
2018-03-28T01:03:25.418Z,50.31
2018-03-28T01:04:25.416Z,50.21
2018-03-28T01:05:26.171Z,50.31
2018-03-28T01:06:25.471Z,50.41
2018-03-28T01:07:25.322Z,50.41
2018-03-28T01:08:25.421Z,50.50
2018-03-28T01:09:25.386Z,50.60
2018-03-28T01:10:25.384Z,50.41
2018-03-28T01:11:25.318Z,50.50
2018-03-28T01:12:25.216Z,50.41
2018-03-28T01:13:25.183Z,50.31
2018-03-28T01:14:25.167Z,50.31
2018-03-28T01:15:25.133Z,50.41
2018-03-28T01:16:26.099Z,50.41
2018-03-28T01:17:25.095Z,50.60
2018-03-28T01:18:25.132Z,50.70
2018-03-28T01:19:25.044Z,50.41
2018-03-28T01:20:25.014Z,50.41
2018-03-28T01:21:24.987Z,50.70
2018-03-28T01:22:25.047Z,50.89
2018-03-28T01:23:24.952Z,50.60
2018-03-28T01:24:24.972Z,50.60
2018-03-28T01:25:24.906Z,51.09
2018-03-28T01:26:24.895Z,50.70
2018-03-28T01:27:24.877Z,50.70
2018-03-28T01:28:24.907Z,50.60
2018-03-28T01:29:24.919Z,50.50
2018-03-28T01:30:24.775Z,50.79
2018-03-28T01:31:24.781Z,50.79
2018-03-28T01:32:24.834Z,51.09
2018-03-28T01:33:24.710Z,51.09
2018-03-28T01:34:24.674Z,51.09
2018-03-28T01:35:24.649Z,51.18
2018-03-28T01:36:24.640Z,51.47
2018-03-28T01:37:24.674Z,51.47
2018-03-28T01:38:25.618Z,50.79
2018-03-28T01:39:24.620Z,51.57
2018-03-28T01:40:24.530Z,51.57
2018-03-28T01:41:24.567Z,51.09
2018-03-28T01:42:24.486Z,50.79
2018-03-28T01:43:24.470Z,50.79
2018-03-28T01:44:24.435Z,50.70
2018-03-28T01:45:24.436Z,51.28
2018-03-28T01:46:24.414Z,51.37
2018-03-28T01:47:24.373Z,51.09
2018-03-28T01:48:24.372Z,51.28
2018-03-28T01:49:24.324Z,51.28
2018-03-28T01:50:24.293Z,51.28
2018-03-28T01:51:24.333Z,51.37
2018-03-28T01:52:24.248Z,50.70
2018-03-28T01:53:24.239Z,51.76
2018-03-28T01:54:24.201Z,51.86
2018-03-28T01:55:24.173Z,50.70
2018-03-28T01:56:24.164Z,51.67
2018-03-28T01:57:24.126Z,50.89
2018-03-28T01:58:24.105Z,51.57
2018-03-28T01:59:24.136Z,51.09
2018-03-28T02:00:24.066Z,51.09
2018-03-28T02:01:24.034Z,51.16
2018-03-28T02:02:24.007Z,51.18
2018-03-28T02:03:24.011Z,50.96
2018-03-28T02:04:23.964Z,51.06
2018-03-28T02:05:23.939Z,51.09
2018-03-28T02:06:23.926Z,50.99
2018-03-28T02:07:23.895Z,50.79
2018-03-28T02:08:23.868Z,51.35
2018-03-28T02:09:23.837Z,50.89
2018-03-28T02:10:23.827Z,50.89
2018-03-28T02:11:23.798Z,52.06
2018-03-28T02:12:23.777Z,51.18
2018-03-28T02:13:23.750Z,52.25
2018-03-28T02:14:23.723Z,50.89
2018-03-28T02:15:23.699Z,51.09
2018-03-28T02:16:23.671Z,51.25
2018-03-28T02:17:23.652Z,51.37
2018-03-28T02:18:23.623Z,51.28
2018-03-28T02:19:23.604Z,51.47
2018-03-28T02:20:23.581Z,51.25
2018-03-28T02:21:23.554Z,51.47
2018-03-28T02:22:23.544Z,51.45
2018-03-28T02:23:23.510Z,51.47
2018-03-28T02:24:23.478Z,51.57
2018-03-28T02:25:23.528Z,51.84
2018-03-28T02:26:23.438Z,51.45
2018-03-28T02:27:23.412Z,51.45
2018-03-28T02:28:23.437Z,51.45
2018-03-28T02:29:23.371Z,51.45
2018-03-28T02:30:23.338Z,51.64
2018-03-28T02:31:23.318Z,51.74
2018-03-28T02:32:24.095Z,51.67
2018-03-28T02:33:23.268Z,51.47
2018-03-28T02:34:23.245Z,51.54
2018-03-28T02:35:23.225Z,51.35
2018-03-28T02:36:23.196Z,51.57
2018-03-28T02:37:23.166Z,51.35
2018-03-28T02:38:23.147Z,51.28
2018-03-28T02:39:23.128Z,51.35
2018-03-28T02:40:23.108Z,51.64
2018-03-28T02:41:23.070Z,51.45
2018-03-28T02:42:23.048Z,51.96
2018-03-28T02:43:23.601Z,51.93
2018-03-28T02:44:22.997Z,51.84
2018-03-28T02:45:22.985Z,51.84
2018-03-28T02:46:22.976Z,51.93
2018-03-28T02:47:22.926Z,51.93
2018-03-28T02:48:22.904Z,51.93
2018-03-28T02:49:22.885Z,52.03
2018-03-28T02:50:22.869Z,51.93
2018-03-28T02:51:22.835Z,52.25
2018-03-28T02:52:22.855Z,52.03
2018-03-28T02:53:22.787Z,51.93
2018-03-28T02:54:23.597Z,52.06
2018-03-28T02:55:22.763Z,52.15
2018-03-28T02:56:22.712Z,51.93
2018-03-28T02:57:22.689Z,51.93
2018-03-28T02:58:22.668Z,52.03
2018-03-28T02:59:22.644Z,52.12
2018-03-28T03:00:22.624Z,52.03
2018-03-28T03:01:22.594Z,51.84
2018-03-28T03:02:22.568Z,52.03
2018-03-28T03:03:22.572Z,52.03
2018-03-28T03:04:22.531Z,52.12
2018-03-28T03:05:25.177Z,51.93
2018-03-28T03:06:22.477Z,51.84
2018-03-28T03:07:22.463Z,51.93
2018-03-28T03:08:22.425Z,51.84
2018-03-28T03:09:22.407Z,52.12
2018-03-28T03:10:22.443Z,52.42
2018-03-28T03:11:22.367Z,52.32
2018-03-28T03:12:22.330Z,52.22
2018-03-28T03:13:22.309Z,52.42
2018-03-28T03:14:22.291Z,52.42
2018-03-28T03:15:22.263Z,52.32
2018-03-28T03:16:22.254Z,52.51
2018-03-28T03:17:22.226Z,52.71
2018-03-28T03:18:22.185Z,52.71
2018-03-28T03:19:22.181Z,52.80
2018-03-28T03:20:22.151Z,52.80
2018-03-28T03:21:22.136Z,52.71
2018-03-28T03:22:22.093Z,52.80
2018-03-28T03:23:22.085Z,52.61
2018-03-28T03:24:22.621Z,52.71
2018-03-28T03:25:22.028Z,52.71
2018-03-28T03:26:22.021Z,52.51
2018-03-28T03:27:22.610Z,52.61
2018-03-28T03:28:21.960Z,52.61
2018-03-28T03:29:21.923Z,52.71
2018-03-28T03:30:21.898Z,52.61
2018-03-28T03:31:21.943Z,52.61
2018-03-28T03:32:21.865Z,52.61
2018-03-28T03:33:21.820Z,52.42
2018-03-28T03:34:21.826Z,52.51
2018-03-28T03:35:21.781Z,52.71
2018-03-28T03:36:21.764Z,52.61
2018-03-28T03:37:21.765Z,52.71
2018-03-28T03:38:21.710Z,52.51
2018-03-28T03:39:21.684Z,52.51
2018-03-28T03:40:21.652Z,52.51
2018-03-28T03:41:21.631Z,52.61
2018-03-28T03:42:21.626Z,52.42
2018-03-28T03:43:21.586Z,52.51
2018-03-28T03:44:21.567Z,52.51
2018-03-28T03:45:21.538Z,52.51
2018-03-28T03:46:21.529Z,52.61
2018-03-28T03:47:21.488Z,52.71
2018-03-28T03:48:21.471Z,52.71
2018-03-28T03:49:22.112Z,52.80
2018-03-28T03:50:21.416Z,52.51
2018-03-28T03:51:21.390Z,52.32
2018-03-28T03:52:21.390Z,52.32
2018-03-28T03:53:21.352Z,52.32
2018-03-28T03:54:21.325Z,52.22
2018-03-28T03:55:21.313Z,52.71
2018-03-28T03:56:21.275Z,52.32
2018-03-28T03:57:21.250Z,52.80
2018-03-28T03:58:21.231Z,52.80
2018-03-28T03:59:21.196Z,52.90
2018-03-28T04:00:22.116Z,52.71
2018-03-28T04:01:21.153Z,52.32
2018-03-28T04:02:21.166Z,52.80
2018-03-28T04:03:21.107Z,52.22
2018-03-28T04:04:21.126Z,52.42
2018-03-28T04:05:21.056Z,52.42
2018-03-28T04:06:21.042Z,52.80
2018-03-28T04:07:21.017Z,52.51
2018-03-28T04:08:20.986Z,52.32
2018-03-28T04:09:20.962Z,52.71
2018-03-28T04:10:20.936Z,53.00
2018-03-28T04:11:21.616Z,52.90
2018-03-28T04:12:20.889Z,53.00
2018-03-28T04:13:20.861Z,52.90
2018-03-28T04:14:20.845Z,52.97
2018-03-28T04:15:20.813Z,52.90
2018-03-28T04:16:20.791Z,52.90
2018-03-28T04:17:20.769Z,53.00
2018-03-28T04:18:20.743Z,53.00
2018-03-28T04:19:20.723Z,53.07
2018-03-28T04:20:20.699Z,52.97
2018-03-28T04:21:20.671Z,53.19
2018-03-28T04:22:20.642Z,53.07
2018-03-28T04:23:20.644Z,53.09
2018-03-28T04:24:20.594Z,53.07
2018-03-28T04:25:20.573Z,53.09
2018-03-28T04:26:20.549Z,53.19
2018-03-28T04:27:20.524Z,52.97
2018-03-28T04:28:20.503Z,53.17
2018-03-28T04:29:20.470Z,52.97
2018-03-28T04:30:20.451Z,53.07
2018-03-28T04:31:20.437Z,53.26
2018-03-28T04:32:20.405Z,53.09
2018-03-28T04:33:20.389Z,53.36
2018-03-28T04:34:20.355Z,53.36
2018-03-28T04:35:20.335Z,52.97
2018-03-28T04:36:20.313Z,53.17
2018-03-28T04:37:20.286Z,52.97
2018-03-28T04:38:20.264Z,53.17
2018-03-28T04:39:20.247Z,53.36
2018-03-28T04:40:20.220Z,53.26
2018-03-28T04:41:20.191Z,53.29
2018-03-28T04:42:20.169Z,53.26
2018-03-28T04:43:20.141Z,52.78
2018-03-28T04:44:20.120Z,53.36
2018-03-28T04:45:20.095Z,52.97
2018-03-28T04:46:20.070Z,53.07
2018-03-28T04:47:20.051Z,53.26
2018-03-28T04:48:20.024Z,53.07
2018-03-28T04:49:19.995Z,53.17
2018-03-28T04:50:19.981Z,52.97
2018-03-28T04:51:19.952Z,53.17
2018-03-28T04:52:19.921Z,53.17
2018-03-28T04:53:19.908Z,53.26
2018-03-28T04:54:19.884Z,53.07
2018-03-28T04:55:19.848Z,53.36
2018-03-28T04:56:19.841Z,53.07
2018-03-28T04:57:19.809Z,52.97
2018-03-28T04:58:19.778Z,53.17
2018-03-28T04:59:19.752Z,53.17
2018-03-28T05:00:19.731Z,53.26
2018-03-28T05:01:19.709Z,53.07
2018-03-28T05:02:19.683Z,53.65
2018-03-28T05:03:19.659Z,53.17
2018-03-28T05:04:19.637Z,52.87
2018-03-28T05:05:19.612Z,53.26
2018-03-28T05:06:19.585Z,53.26
2018-03-28T05:07:19.559Z,53.26
2018-03-28T05:08:19.534Z,53.26
2018-03-28T05:09:19.518Z,53.17
2018-03-28T05:10:19.552Z,52.97
2018-03-28T05:11:19.467Z,53.17
2018-03-28T05:12:19.444Z,53.26
2018-03-28T05:13:19.418Z,53.17
2018-03-28T05:14:19.422Z,53.17
2018-03-28T05:15:19.372Z,53.36
2018-03-28T05:16:19.339Z,53.07
2018-03-28T05:17:19.325Z,53.17
2018-03-28T05:18:19.314Z,53.07
2018-03-28T05:19:19.270Z,53.17
2018-03-28T05:20:19.241Z,53.26
2018-03-28T05:21:19.230Z,53.26
2018-03-28T05:22:19.201Z,52.97
2018-03-28T05:23:19.175Z,53.17
2018-03-28T05:24:19.149Z,53.17
2018-03-28T05:25:19.124Z,53.17
2018-03-28T05:26:19.105Z,52.97
2018-03-28T05:27:19.086Z,53.17
2018-03-28T05:28:19.054Z,52.97
2018-03-28T05:29:19.028Z,53.17
2018-03-28T05:30:19.010Z,53.07
2018-03-28T05:31:18.984Z,53.26
2018-03-28T05:32:18.954Z,52.97
2018-03-28T05:33:18.930Z,53.26
2018-03-28T05:34:18.906Z,53.17
2018-03-28T05:35:18.886Z,53.26
2018-03-28T05:36:18.858Z,53.07
2018-03-28T05:37:18.839Z,52.97
2018-03-28T05:38:18.812Z,53.17
2018-03-28T05:39:18.788Z,53.26
2018-03-28T05:40:18.768Z,53.26
2018-03-28T05:41:18.739Z,53.17
2018-03-28T05:42:18.717Z,53.07
2018-03-28T05:43:18.685Z,53.17
2018-03-28T05:44:18.662Z,53.17
2018-03-28T05:45:18.643Z,53.26
2018-03-28T05:46:18.623Z,53.26
2018-03-28T05:47:18.591Z,52.97
2018-03-28T05:48:18.575Z,53.26
2018-03-28T05:49:20.144Z,53.17
2018-03-28T05:50:18.536Z,53.26
2018-03-28T05:51:18.496Z,53.36
2018-03-28T05:52:18.471Z,53.26
2018-03-28T05:53:18.442Z,53.17
2018-03-28T05:54:18.423Z,53.26
2018-03-28T05:55:18.401Z,52.97
2018-03-28T05:56:18.378Z,53.17
2018-03-28T05:57:18.357Z,53.07
2018-03-28T05:58:18.322Z,53.36
2018-03-28T05:59:18.297Z,53.07
2018-03-28T06:00:19.150Z,52.97
2018-03-28T06:01:18.274Z,53.07
2018-03-28T06:02:18.228Z,53.26
2018-03-28T06:03:18.204Z,53.07
2018-03-28T06:04:18.190Z,53.26
2018-03-28T06:05:18.158Z,52.87
2018-03-28T06:06:18.136Z,53.07
2018-03-28T06:07:18.109Z,53.36
2018-03-28T06:08:18.086Z,53.17
2018-03-28T06:09:18.066Z,53.17
2018-03-28T06:10:18.032Z,53.07
2018-03-28T06:11:18.012Z,53.26
2018-03-28T06:12:17.994Z,53.07
2018-03-28T06:13:17.969Z,53.26
2018-03-28T06:14:17.946Z,53.07
2018-03-28T06:15:17.918Z,53.26
2018-03-28T06:16:17.898Z,53.65
2018-03-28T06:17:17.868Z,53.36
2018-03-28T06:18:17.845Z,53.36
2018-03-28T06:19:17.818Z,53.26
2018-03-28T06:20:17.794Z,53.26
2018-03-28T06:21:17.768Z,53.17
2018-03-28T06:22:17.756Z,53.07
2018-03-28T06:23:17.729Z,53.36
2018-03-28T06:24:17.698Z,53.55
2018-03-28T06:25:17.673Z,53.36
2018-03-28T06:26:17.652Z,53.55
2018-03-28T06:27:17.630Z,53.55
2018-03-28T06:28:17.600Z,53.36
2018-03-28T06:29:17.574Z,53.36
2018-03-28T06:30:17.557Z,53.65
2018-03-28T06:31:17.530Z,53.26
2018-03-28T06:32:17.499Z,53.55
2018-03-28T06:33:22.159Z,53.65
2018-03-28T06:34:17.451Z,53.36
2018-03-28T06:35:17.434Z,53.33
2018-03-28T06:36:17.461Z,53.36
2018-03-28T06:37:17.380Z,53.36
2018-03-28T06:38:17.362Z,53.36
2018-03-28T06:39:17.337Z,53.26
2018-03-28T06:40:17.311Z,53.36
2018-03-28T06:41:17.290Z,53.45
2018-03-28T06:42:17.260Z,53.36
2018-03-28T06:43:17.256Z,53.36
2018-03-28T06:44:17.216Z,53.36
2018-03-28T06:45:17.184Z,53.36
2018-03-28T06:46:17.160Z,53.26
2018-03-28T06:47:17.147Z,53.55
2018-03-28T06:48:17.116Z,53.23
2018-03-28T06:49:17.095Z,53.53
2018-03-28T06:50:17.075Z,53.36
2018-03-28T06:51:17.044Z,53.26
2018-03-28T06:52:17.018Z,53.23
2018-03-28T06:53:16.997Z,53.36
2018-03-28T06:54:16.974Z,53.63
2018-03-28T06:55:16.958Z,53.63
2018-03-28T06:56:16.918Z,53.36
2018-03-28T06:57:16.899Z,53.23
2018-03-28T06:58:16.872Z,53.43
2018-03-28T06:59:16.850Z,53.33
2018-03-28T07:00:16.823Z,53.43
2018-03-28T07:01:16.799Z,53.43
2018-03-28T07:02:16.774Z,53.53
2018-03-28T07:03:16.747Z,53.33
2018-03-28T07:04:16.726Z,53.63
2018-03-28T07:05:16.700Z,53.23
2018-03-28T07:06:16.685Z,53.43
2018-03-28T07:07:16.652Z,53.53
2018-03-28T07:08:16.635Z,53.63
2018-03-28T07:09:16.620Z,53.53
2018-03-28T07:10:16.578Z,53.33
2018-03-28T07:11:16.557Z,53.43
2018-03-28T07:12:16.532Z,53.43
2018-03-28T07:13:16.506Z,53.43
2018-03-28T07:14:16.569Z,53.72
2018-03-28T07:15:16.466Z,53.33
2018-03-28T07:16:16.446Z,53.63
2018-03-28T07:17:16.436Z,53.72
2018-03-28T07:18:16.383Z,53.43
2018-03-28T07:19:16.375Z,53.23
2018-03-28T07:20:16.337Z,53.53
2018-03-28T07:21:16.311Z,53.14
2018-03-28T07:22:16.301Z,53.43
2018-03-28T07:23:16.262Z,53.23
2018-03-28T07:24:16.242Z,53.23
2018-03-28T07:25:16.213Z,53.43
2018-03-28T07:26:16.198Z,53.53
2018-03-28T07:27:16.173Z,53.33
2018-03-28T07:28:16.145Z,53.63
2018-03-28T07:29:16.119Z,53.43
2018-03-28T07:30:16.100Z,53.63
2018-03-28T07:31:16.067Z,53.63
2018-03-28T07:32:16.053Z,53.23
2018-03-28T07:33:16.019Z,53.33
2018-03-28T07:34:15.997Z,53.33
2018-03-28T07:35:15.971Z,53.33
2018-03-28T07:36:15.951Z,53.33
2018-03-28T07:37:15.927Z,53.33
2018-03-28T07:38:15.902Z,53.23
2018-03-28T07:39:15.876Z,53.53
2018-03-28T07:40:15.856Z,53.33
2018-03-28T07:41:15.827Z,53.23
2018-03-28T07:42:15.798Z,53.43
2018-03-28T07:43:15.779Z,53.43
2018-03-28T07:44:15.752Z,53.33
2018-03-28T07:45:15.736Z,53.53
2018-03-28T07:46:15.707Z,53.43
2018-03-28T07:47:15.685Z,53.53
2018-03-28T07:48:15.656Z,53.43
2018-03-28T07:49:16.180Z,53.53
2018-03-28T07:50:15.609Z,53.43
2018-03-28T07:51:15.585Z,53.33
2018-03-28T07:52:15.576Z,53.33
2018-03-28T07:53:15.541Z,53.63
2018-03-28T07:54:15.508Z,53.23
2018-03-28T07:55:15.487Z,53.53
2018-03-28T07:56:15.461Z,53.63
2018-03-28T07:57:15.437Z,53.53
2018-03-28T07:58:15.429Z,53.53
2018-03-28T07:59:15.387Z,53.33
2018-03-28T08:00:16.181Z,53.43
2018-03-28T08:01:15.338Z,53.43
2018-03-28T08:02:15.319Z,53.43
2018-03-28T08:03:15.299Z,53.53
2018-03-28T08:04:15.309Z,53.43
2018-03-28T08:05:15.251Z,53.43
2018-03-28T08:06:15.216Z,53.53
2018-03-28T08:07:15.194Z,53.33
2018-03-28T08:08:15.173Z,53.53
2018-03-28T08:09:15.146Z,53.43
2018-03-28T08:10:15.121Z,53.53
2018-03-28T08:11:15.100Z,53.63
2018-03-28T08:12:15.073Z,53.43
2018-03-28T08:13:15.050Z,53.33
2018-03-28T08:14:15.032Z,53.43
2018-03-28T08:15:14.996Z,53.53
2018-03-28T08:16:14.975Z,53.63
2018-03-28T08:17:14.959Z,53.53
2018-03-28T08:18:14.924Z,53.43
2018-03-28T08:19:14.968Z,53.53
2018-03-28T08:20:14.890Z,53.43
2018-03-28T08:21:14.851Z,53.33
2018-03-28T08:22:16.689Z,53.43
2018-03-28T08:23:14.803Z,53.33
2018-03-28T08:24:14.792Z,53.53
2018-03-28T08:25:14.760Z,53.53
2018-03-28T08:26:14.731Z,53.43
2018-03-28T08:27:14.710Z,53.53
2018-03-28T08:28:14.688Z,53.43
2018-03-28T08:29:14.664Z,53.33
2018-03-28T08:30:14.641Z,53.33
2018-03-28T08:31:14.610Z,53.53
2018-03-28T08:32:14.583Z,53.59
2018-03-28T08:33:14.563Z,53.53
2018-03-28T08:34:14.533Z,53.41
2018-03-28T08:35:14.511Z,53.53
2018-03-28T08:36:14.484Z,53.50
2018-03-28T08:37:14.461Z,53.41
2018-03-28T08:38:14.463Z,53.50
2018-03-28T08:39:14.468Z,53.59
2018-03-28T08:40:14.393Z,53.53
2018-03-28T08:41:14.367Z,53.21
2018-03-28T08:42:14.338Z,53.43
2018-03-28T08:43:14.318Z,53.50
2018-03-28T08:44:14.292Z,53.31
2018-03-28T08:45:14.270Z,53.59
2018-03-28T08:46:14.244Z,53.50
2018-03-28T08:47:14.220Z,53.41
2018-03-28T08:48:14.201Z,53.41
2018-03-28T08:49:14.169Z,53.41
2018-03-28T08:50:14.146Z,53.50
2018-03-28T08:51:14.127Z,53.43
2018-03-28T08:52:14.157Z,53.50
2018-03-28T08:53:14.073Z,53.31
2018-03-28T08:54:14.051Z,53.53
2018-03-28T08:55:14.027Z,53.41
2018-03-28T08:56:14.005Z,53.41
2018-03-28T08:57:13.977Z,53.50
2018-03-28T08:58:13.949Z,53.50
2018-03-28T08:59:13.925Z,53.59
2018-03-28T09:00:13.904Z,53.50
2018-03-28T09:01:14.435Z,53.11
2018-03-28T09:02:13.853Z,53.11
2018-03-28T09:03:13.837Z,53.59
2018-03-28T09:04:13.818Z,53.41
2018-03-28T09:05:13.778Z,53.59
2018-03-28T09:06:16.697Z,53.31
2018-03-28T09:07:13.736Z,53.41
2018-03-28T09:08:13.724Z,53.50
2018-03-28T09:09:13.689Z,53.50
2018-03-28T09:10:13.650Z,53.41
2018-03-28T09:11:13.630Z,53.59
2018-03-28T09:12:13.608Z,53.50
2018-03-28T09:13:13.592Z,53.50
2018-03-28T09:14:13.564Z,53.41
2018-03-28T09:15:13.543Z,53.41
2018-03-28T09:16:13.509Z,53.59
2018-03-28T09:17:14.211Z,53.31
2018-03-28T09:18:13.455Z,53.31
2018-03-28T09:19:13.474Z,53.69
2018-03-28T09:20:13.419Z,53.59
2018-03-28T09:21:13.387Z,53.69
2018-03-28T09:22:13.367Z,53.69
2018-03-28T09:23:13.344Z,53.59
2018-03-28T09:24:13.316Z,53.69
2018-03-28T09:25:13.289Z,53.41
2018-03-28T09:26:13.265Z,53.50
2018-03-28T09:27:13.249Z,53.41
2018-03-28T09:28:13.216Z,53.59
2018-03-28T09:29:13.196Z,53.41
2018-03-28T09:30:13.165Z,53.41
2018-03-28T09:31:13.145Z,53.50
2018-03-28T09:32:13.119Z,53.59
2018-03-28T09:33:13.099Z,53.50
2018-03-28T09:34:13.077Z,53.50
2018-03-28T09:35:13.052Z,53.59
2018-03-28T09:36:13.020Z,53.69
2018-03-28T09:37:13.006Z,53.69
2018-03-28T09:38:12.978Z,53.59
2018-03-28T09:39:12.952Z,53.50
2018-03-28T09:40:12.920Z,53.50
2018-03-28T09:41:12.916Z,53.41
2018-03-28T09:42:12.876Z,53.59
2018-03-28T09:43:12.850Z,53.59
2018-03-28T09:44:12.824Z,53.59
2018-03-28T09:45:12.804Z,53.69
2018-03-28T09:46:12.777Z,53.59
2018-03-28T09:47:12.749Z,53.50
2018-03-28T09:48:12.726Z,53.79
2018-03-28T09:49:12.706Z,53.50
2018-03-28T09:50:12.685Z,53.59
2018-03-28T09:51:12.649Z,53.59
2018-03-28T09:52:12.626Z,53.89
2018-03-28T09:53:12.606Z,53.79
2018-03-28T09:54:12.581Z,53.59
2018-03-28T09:55:12.559Z,53.59
2018-03-28T09:56:12.530Z,53.69
2018-03-28T09:57:12.506Z,53.50
2018-03-28T09:58:12.482Z,53.59
2018-03-28T09:59:12.465Z,53.89
2018-03-28T10:00:12.432Z,53.59
2018-03-28T10:01:12.409Z,53.59
2018-03-28T10:02:12.384Z,53.79
2018-03-28T10:03:12.359Z,53.69
2018-03-28T10:04:12.335Z,53.79
2018-03-28T10:05:12.306Z,53.50
2018-03-28T10:06:12.286Z,53.59
2018-03-28T10:07:12.265Z,53.89
2018-03-28T10:08:12.236Z,53.89
2018-03-28T10:09:12.258Z,53.89
2018-03-28T10:10:12.191Z,53.50
2018-03-28T10:11:12.166Z,53.89
2018-03-28T10:12:12.142Z,53.59
2018-03-28T10:13:12.112Z,53.99
2018-03-28T10:14:12.088Z,53.79
2018-03-28T10:15:12.065Z,53.79
2018-03-28T10:16:12.040Z,53.50
2018-03-28T10:17:12.016Z,53.57
2018-03-28T10:18:11.990Z,53.79
2018-03-28T10:19:11.966Z,53.59
2018-03-28T10:20:11.939Z,53.57
2018-03-28T10:21:11.934Z,53.67
2018-03-28T10:22:32.894Z,53.59
2018-03-28T10:23:11.869Z,53.57
2018-03-28T10:24:11.850Z,53.89
2018-03-28T10:25:11.819Z,53.89
2018-03-28T10:26:11.794Z,53.59
2018-03-28T10:27:11.773Z,53.69
2018-03-28T10:28:11.741Z,53.57
2018-03-28T10:29:11.718Z,53.69
2018-03-28T10:30:11.706Z,53.99
2018-03-28T10:31:11.678Z,53.69
2018-03-28T10:32:11.651Z,53.89
2018-03-28T10:33:12.221Z,53.77
2018-03-28T10:34:11.605Z,53.59
2018-03-28T10:35:11.625Z,53.96
2018-03-28T10:36:11.550Z,53.69
2018-03-28T10:37:11.526Z,53.89
2018-03-28T10:38:11.511Z,54.08
2018-03-28T10:39:11.484Z,53.86
2018-03-28T10:40:11.452Z,54.17
2018-03-28T10:41:11.429Z,54.08
2018-03-28T10:42:11.409Z,54.05
2018-03-28T10:43:11.376Z,53.69
2018-03-28T10:44:11.383Z,53.59
2018-03-28T10:45:11.327Z,53.57
2018-03-28T10:46:11.304Z,53.99
2018-03-28T10:47:11.355Z,54.08
2018-03-28T10:48:11.264Z,53.96
2018-03-28T10:49:11.244Z,54.08
2018-03-28T10:50:11.206Z,53.96
2018-03-28T10:51:11.187Z,54.15
2018-03-28T10:52:11.156Z,54.25
2018-03-28T10:53:11.138Z,54.37
2018-03-28T10:54:11.131Z,54.25
2018-03-28T10:55:11.083Z,54.35
2018-03-28T10:56:11.055Z,53.99
2018-03-28T10:57:11.031Z,54.05
2018-03-28T10:58:11.011Z,54.15
2018-03-28T10:59:10.985Z,54.25
2018-03-28T11:00:10.964Z,54.15
2018-03-28T11:01:10.934Z,54.15
2018-03-28T11:02:10.938Z,54.25
2018-03-28T11:03:10.891Z,53.99
2018-03-28T11:04:10.872Z,54.25
2018-03-28T11:05:10.836Z,54.25
2018-03-28T11:06:10.901Z,54.93
2018-03-28T11:07:10.796Z,54.83
2018-03-28T11:08:10.784Z,54.63
2018-03-28T11:09:10.906Z,54.44
2018-03-28T11:10:10.769Z,54.73
2018-03-28T11:11:11.185Z,54.75
2018-03-28T11:12:10.670Z,54.63
2018-03-28T11:13:13.298Z,55.43
2018-03-28T11:14:10.623Z,55.99
2018-03-28T11:15:10.679Z,55.99
2018-03-28T11:16:10.570Z,55.60
2018-03-28T11:17:10.870Z,55.89
2018-03-28T11:18:10.529Z,55.41
2018-03-28T11:19:10.504Z,55.82
2018-03-28T11:20:10.668Z,55.99
2018-03-28T11:21:10.449Z,56.37
2018-03-28T11:22:10.418Z,56.28
2018-03-28T11:23:10.393Z,56.09
2018-03-28T11:24:10.410Z,56.57
2018-03-28T11:25:10.386Z,57.15
2018-03-28T11:26:10.945Z,57.24
2018-03-28T11:27:10.894Z,56.95
2018-03-28T11:28:10.268Z,57.05
2018-03-28T11:29:10.244Z,57.05
2018-03-28T11:30:10.220Z,57.44
2018-03-28T11:31:10.203Z,57.24
2018-03-28T11:32:10.170Z,57.46
2018-03-28T11:33:10.158Z,57.66
2018-03-28T11:34:10.123Z,57.63
2018-03-28T11:35:10.283Z,58.21
2018-03-28T11:36:10.806Z,57.92
2018-03-28T11:37:10.083Z,58.12
2018-03-28T11:38:10.052Z,58.31
2018-03-28T11:39:10.003Z,58.53
2018-03-28T11:40:09.990Z,58.12
2018-03-28T11:41:10.364Z,58.50
2018-03-28T11:42:09.927Z,58.98
2018-03-28T11:43:09.913Z,58.63
2018-03-28T11:44:09.892Z,58.80
2018-03-28T11:45:09.867Z,58.82
2018-03-28T11:46:09.828Z,58.89
2018-03-28T11:47:09.865Z,58.63
2018-03-28T11:48:09.778Z,58.89
2018-03-28T11:49:09.756Z,58.92
2018-03-28T11:50:09.759Z,59.21
2018-03-28T11:51:09.707Z,59.31
2018-03-28T11:52:09.690Z,59.31
2018-03-28T11:53:09.720Z,59.21
2018-03-28T11:54:09.624Z,59.40
2018-03-28T11:55:09.602Z,59.31
2018-03-28T11:56:09.598Z,59.31
2018-03-28T11:57:09.558Z,59.69
2018-03-28T11:58:09.533Z,59.59
2018-03-28T11:59:09.506Z,59.66
2018-03-28T12:00:09.487Z,59.21
2018-03-28T12:01:09.458Z,59.89
2018-03-28T12:02:09.432Z,59.31
2018-03-28T12:03:09.412Z,59.31
2018-03-28T12:04:09.385Z,59.31
2018-03-28T12:05:09.369Z,59.59
2018-03-28T12:06:09.340Z,59.40
2018-03-28T12:07:09.322Z,59.50
2018-03-28T12:08:09.414Z,60.08
2018-03-28T12:09:09.304Z,59.69
2018-03-28T12:10:09.304Z,59.59
2018-03-28T12:11:09.215Z,60.27
2018-03-28T12:12:09.187Z,59.69
2018-03-28T12:13:10.750Z,59.79
2018-03-28T12:14:09.195Z,60.08
2018-03-28T12:15:09.121Z,59.59
2018-03-28T12:16:09.116Z,59.89
2018-03-28T12:17:09.068Z,59.59
2018-03-28T12:18:09.038Z,59.40
2018-03-28T12:19:23.808Z,59.98
2018-03-28T12:20:08.990Z,59.21
2018-03-28T12:21:08.978Z,59.69
2018-03-28T12:22:08.942Z,59.69
2018-03-28T12:23:08.971Z,59.50
2018-03-28T12:24:08.894Z,59.31
2018-03-28T12:25:08.898Z,60.08
2018-03-28T12:26:08.852Z,60.66
2018-03-28T12:27:08.834Z,60.27
2018-03-28T12:28:08.828Z,60.47
2018-03-28T12:29:08.778Z,60.59
2018-03-28T12:30:08.748Z,61.36
2018-03-28T12:31:08.731Z,61.92
2018-03-28T12:32:08.702Z,61.66
2018-03-28T12:33:08.673Z,61.72
2018-03-28T12:34:08.652Z,61.63
2018-03-28T12:35:08.622Z,61.66
2018-03-28T12:36:08.601Z,61.82
2018-03-28T12:37:08.574Z,61.56
2018-03-28T12:38:08.547Z,61.85
2018-03-28T12:39:08.528Z,62.14
2018-03-28T12:40:08.502Z,62.63
2018-03-28T12:41:08.476Z,62.53
2018-03-28T12:42:08.518Z,61.95
2018-03-28T12:43:08.470Z,62.14
2018-03-28T12:44:08.462Z,61.95
2018-03-28T12:45:08.383Z,62.34
2018-03-28T12:46:08.358Z,62.07
2018-03-28T12:47:08.342Z,62.27
2018-03-28T12:48:08.366Z,62.37
2018-03-28T12:49:08.297Z,62.17
2018-03-28T12:50:08.258Z,62.07
2018-03-28T12:51:09.798Z,62.07
2018-03-28T12:52:08.301Z,62.17